sensor_id;sensor_type;location;lat;lon;timestamp;pressure;altitude;pressure_sealevel;temperature;humidity
52797;BME280;38666;43.348;12.584;2023-02-19T06:54:00;96623.75;;;7.17;85.34
52797;BME280;38666;43.348;12.584;2023-02-19T06:56:30;96629.63;;;7.19;84.00
52797;BME280;38666;43.348;12.584;2023-02-19T06:58:58;96632.50;;;7.26;85.19
52797;BME280;38666;43.348;12.584;2023-02-19T07:01:24;96630.72;;;7.34;85.09
52797;BME280;38666;43.348;12.584;2023-02-19T07:03:51;96618.06;;;7.42;84.94
52797;BME280;38666;43.348;12.584;2023-02-19T07:06:18;96629.09;;;7.49;85.79
52797;BME280;38666;43.348;12.584;2023-02-19T07:08:44;96623.47;;;7.58;83.93
52797;BME280;38666;43.348;12.584;2023-02-19T07:11:09;96619.22;;;7.61;82.67
52797;BME280;38666;43.348;12.584;2023-02-19T07:13:35;96622.97;;;7.72;83.54
52797;BME280;38666;43.348;12.584;2023-02-19T07:16:03;96632.41;;;7.78;82.47
52797;BME280;38666;43.348;12.584;2023-02-19T07:18:29;96626.34;;;7.85;81.71
52797;BME280;38666;43.348;12.584;2023-02-19T07:21:01;96624.97;;;7.95;81.51
52797;BME280;38666;43.348;12.584;2023-02-19T07:23:27;96619.44;;;7.91;80.25
52797;BME280;38666;43.348;12.584;2023-02-19T07:25:52;96620.69;;;7.94;80.75
52797;BME280;38666;43.348;12.584;2023-02-19T07:28:18;96630.59;;;8.06;79.45
52797;BME280;38666;43.348;12.584;2023-02-19T07:30:43;96628.25;;;8.04;79.51
52797;BME280;38666;43.348;12.584;2023-02-19T07:33:09;96623.53;;;8.01;80.33
52797;BME280;38666;43.348;12.584;2023-02-19T07:35:35;96624.97;;;7.95;80.11
52797;BME280;38666;43.348;12.584;2023-02-19T07:38:00;96624.38;;;7.86;81.10
52797;BME280;38666;43.348;12.584;2023-02-19T07:40:25;96623.25;;;7.87;80.50
52797;BME280;38666;43.348;12.584;2023-02-19T07:42:51;96620.81;;;7.81;81.20
52797;BME280;38666;43.348;12.584;2023-02-19T07:45:16;96618.38;;;7.76;82.18
52797;BME280;38666;43.348;12.584;2023-02-19T07:47:42;96616.22;;;7.66;82.34
52797;BME280;38666;43.348;12.584;2023-02-19T07:50:08;96612.94;;;7.76;82.56
52797;BME280;38666;43.348;12.584;2023-02-19T07:52:33;96620.38;;;7.99;81.29
52797;BME280;38666;43.348;12.584;2023-02-19T07:54:59;96615.78;;;8.03;80.45
52797;BME280;38666;43.348;12.584;2023-02-19T07:57:27;96609.22;;;8.04;79.97
52797;BME280;38666;43.348;12.584;2023-02-19T07:59:53;96618.94;;;8.05;80.07
52797;BME280;38666;43.348;12.584;2023-02-19T08:02:19;96618.09;;;8.01;80.67
52797;BME280;38666;43.348;12.584;2023-02-19T08:05:04;96611.56;;;8.06;81.01
52797;BME280;38666;43.348;12.584;2023-02-19T08:07:34;96621.22;;;8.03;80.33
52797;BME280;38666;43.348;12.584;2023-02-19T08:10:00;96614.81;;;7.92;82.08
52797;BME280;38666;43.348;12.584;2023-02-19T08:12:44;96610.34;;;8.03;81.75
52797;BME280;38666;43.348;12.584;2023-02-19T08:15:28;96617.63;;;8.19;80.60
52797;BME280;38666;43.348;12.584;2023-02-19T08:17:54;96612.47;;;8.14;81.05
52797;BME280;38666;43.348;12.584;2023-02-19T08:20:19;96612.22;;;8.23;81.12
52797;BME280;38666;43.348;12.584;2023-02-19T08:22:45;96609.88;;;8.21;81.15
52797;BME280;38666;43.348;12.584;2023-02-19T08:25:10;96601.31;;;8.19;81.71
52797;BME280;38666;43.348;12.584;2023-02-19T08:27:36;96609.56;;;8.26;81.59
52797;BME280;38666;43.348;12.584;2023-02-19T08:30:01;96612.44;;;8.34;81.12
52797;BME280;38666;43.348;12.584;2023-02-19T08:32:27;96616.31;;;8.33;81.34
52797;BME280;38666;43.348;12.584;2023-02-19T08:34:52;96608.50;;;8.31;81.18
52797;BME280;38666;43.348;12.584;2023-02-19T08:37:18;96611.59;;;8.29;81.83
52797;BME280;38666;43.348;12.584;2023-02-19T08:39:43;96613.16;;;8.30;82.16
52797;BME280;38666;43.348;12.584;2023-02-19T08:42:09;96611.78;;;8.40;81.81
52797;BME280;38666;43.348;12.584;2023-02-19T08:44:34;96615.28;;;8.41;81.81
52797;BME280;38666;43.348;12.584;2023-02-19T08:47:00;96602.72;;;8.33;82.88
52797;BME280;38666;43.348;12.584;2023-02-19T08:49:26;96613.88;;;8.27;82.72
52797;BME280;38666;43.348;12.584;2023-02-19T08:51:52;96609.75;;;8.14;84.90
52797;BME280;38666;43.348;12.584;2023-02-19T08:54:17;96609.75;;;8.14;85.20
52797;BME280;38666;43.348;12.584;2023-02-19T08:56:43;96617.94;;;8.37;82.61
52797;BME280;38666;43.348;12.584;2023-02-19T08:59:08;96607.13;;;8.41;82.84
52797;BME280;38666;43.348;12.584;2023-02-19T09:01:34;96601.13;;;8.55;82.78
52797;BME280;38666;43.348;12.584;2023-02-19T09:03:59;96609.13;;;8.67;82.64
52797;BME280;38666;43.348;12.584;2023-02-19T09:06:25;96602.06;;;8.63;82.00
52797;BME280;38666;43.348;12.584;2023-02-19T09:08:50;96602.06;;;8.63;83.06
52797;BME280;38666;43.348;12.584;2023-02-19T09:11:16;96598.53;;;8.39;85.47
52797;BME280;38666;43.348;12.584;2023-02-19T09:13:42;96598.88;;;8.14;87.91
52797;BME280;38666;43.348;12.584;2023-02-19T09:16:08;96601.31;;;8.19;87.87
52797;BME280;38666;43.348;12.584;2023-02-19T09:18:33;96599.78;;;8.22;87.56
52797;BME280;38666;43.348;12.584;2023-02-19T09:21:01;96610.25;;;8.43;86.15
52797;BME280;38666;43.348;12.584;2023-02-19T09:23:27;96602.09;;;8.43;85.96
52797;BME280;38666;43.348;12.584;2023-02-19T09:25:57;96594.78;;;8.47;86.42
52797;BME280;38666;43.348;12.584;2023-02-19T09:28:24;96595.47;;;8.40;87.93
52797;BME280;38666;43.348;12.584;2023-02-19T09:30:49;96594.81;;;8.71;86.17
52797;BME280;38666;43.348;12.584;2023-02-19T09:33:15;96596.69;;;8.66;85.61
52797;BME280;38666;43.348;12.584;2023-02-19T09:35:40;96595.63;;;8.51;87.81
52797;BME280;38666;43.348;12.584;2023-02-19T09:38:06;96586.31;;;8.52;87.64
52797;BME280;38666;43.348;12.584;2023-02-19T09:40:34;96601.94;;;8.55;87.78
52797;BME280;38666;43.348;12.584;2023-02-19T09:42:59;96594.03;;;8.27;89.68
52797;BME280;38666;43.348;12.584;2023-02-19T09:45:25;96588.53;;;8.23;90.39
52797;BME280;38666;43.348;12.584;2023-02-19T09:47:56;96578.81;;;8.22;90.85
52797;BME280;38666;43.348;12.584;2023-02-19T09:50:33;96584.25;;;8.22;91.68
52797;BME280;38666;43.348;12.584;2023-02-19T09:53:04;96591.84;;;8.13;92.65
52797;BME280;38666;43.348;12.584;2023-02-19T09:55:38;96592.84;;;8.24;92.25
52797;BME280;38666;43.348;12.584;2023-02-19T10:00:41;96584.97;;;8.19;93.45
52797;BME280;38666;43.348;12.584;2023-02-19T10:03:13;96590.22;;;8.08;93.92
52797;BME280;38666;43.348;12.584;2023-02-19T10:05:40;96593.72;;;8.09;94.16
52797;BME280;38666;43.348;12.584;2023-02-19T10:08:11;96597.31;;;8.13;94.73
52797;BME280;38666;43.348;12.584;2023-02-19T10:10:39;96592.28;;;8.15;94.52
52797;BME280;38666;43.348;12.584;2023-02-19T10:13:18;96593.72;;;8.09;94.27
52797;BME280;38666;43.348;12.584;2023-02-19T10:15:55;96591.00;;;8.09;95.32
52797;BME280;38666;43.348;12.584;2023-02-19T10:18:23;96603.53;;;8.13;94.65
52797;BME280;38666;43.348;12.584;2023-02-19T10:20:50;96607.72;;;8.30;94.11
52797;BME280;38666;43.348;12.584;2023-02-19T10:23:16;96603.63;;;8.64;92.23
52797;BME280;38666;43.348;12.584;2023-02-19T10:25:52;96604.66;;;8.55;92.20
52797;BME280;38666;43.348;12.584;2023-02-19T10:28:21;96601.69;;;8.64;91.92
52797;BME280;38666;43.348;12.584;2023-02-19T10:30:52;96596.50;;;8.55;91.68
52797;BME280;38666;43.348;12.584;2023-02-19T10:33:19;96604.38;;;8.61;91.76
52797;BME280;38666;43.348;12.584;2023-02-19T10:35:58;96603.78;;;8.51;92.31
52797;BME280;38666;43.348;12.584;2023-02-19T10:43:32;96587.28;;;8.64;92.40
52797;BME280;38666;43.348;12.584;2023-02-19T10:46:02;96589.31;;;8.67;93.07
52797;BME280;38666;43.348;12.584;2023-02-19T10:48:35;96599.22;;;8.79;92.30
52797;BME280;38666;43.348;12.584;2023-02-19T10:51:05;96595.16;;;8.69;92.53
52797;BME280;38666;43.348;12.584;2023-02-19T10:53:40;96597.84;;;8.93;91.21
52797;BME280;38666;43.348;12.584;2023-02-19T10:56:08;96595.72;;;9.06;89.59
52797;BME280;38666;43.348;12.584;2023-02-19T10:58:34;96604.25;;;9.04;90.60
52797;BME280;38666;43.348;12.584;2023-02-19T11:03:43;96595.16;;;8.69;93.45
52797;BME280;38666;43.348;12.584;2023-02-19T11:06:10;96588.09;;;8.64;92.26
52797;BME280;38666;43.348;12.584;2023-02-19T11:08:49;96580.72;;;8.65;92.47
52797;BME280;38666;43.348;12.584;2023-02-19T11:11:36;96579.16;;;8.91;90.74
52797;BME280;38666;43.348;12.584;2023-02-19T11:14:23;96584.06;;;8.82;92.26
52797;BME280;38666;43.348;12.584;2023-02-19T11:16:51;96581.66;;;8.76;92.16
52797;BME280;38666;43.348;12.584;2023-02-19T11:19:38;96587.22;;;8.60;92.36
52797;BME280;38666;43.348;12.584;2023-02-19T11:24:54;96572.03;;;8.83;90.67
52797;BME280;38666;43.348;12.584;2023-02-19T11:27:22;96577.06;;;8.81;91.66
52797;BME280;38666;43.348;12.584;2023-02-19T11:29:48;96562.69;;;8.84;91.47
52797;BME280;38666;43.348;12.584;2023-02-19T11:34:42;96569.84;;;9.23;88.03
52797;BME280;38666;43.348;12.584;2023-02-19T11:37:11;96572.53;;;9.19;87.89
52797;BME280;38666;43.348;12.584;2023-02-19T11:39:38;96561.41;;;9.05;89.24
52797;BME280;38666;43.348;12.584;2023-02-19T11:42:14;96560.94;;;8.95;89.94
52797;BME280;38666;43.348;12.584;2023-02-19T11:50:31;96547.03;;;8.77;91.08
52797;BME280;38666;43.348;12.584;2023-02-19T11:53:15;96550.75;;;8.65;92.25
52797;BME280;38666;43.348;12.584;2023-02-19T11:56:19;96547.88;;;8.81;92.03
52797;BME280;38666;43.348;12.584;2023-02-19T11:58:57;96544.22;;;8.97;91.42
52797;BME280;38666;43.348;12.584;2023-02-19T12:20:41;96518.94;;;9.00;91.93
52797;BME280;38666;43.348;12.584;2023-02-19T12:36:22;96494.06;;;8.71;96.96
52797;BME280;38666;43.348;12.584;2023-02-19T12:39:01;96484.28;;;8.70;98.46
52797;BME280;38666;43.348;12.584;2023-02-19T12:41:40;96484.66;;;8.68;99.07
52797;BME280;38666;43.348;12.584;2023-02-19T12:46:59;96485.84;;;8.98;97.15
52797;BME280;38666;43.348;12.584;2023-02-19T12:49:36;96480.22;;;8.83;97.88
52797;BME280;38666;43.348;12.584;2023-02-19T12:52:09;96480.53;;;9.09;97.18
52797;BME280;38666;43.348;12.584;2023-02-19T12:54:41;96469.72;;;9.16;96.58
52797;BME280;38666;43.348;12.584;2023-02-19T12:57:18;96477.38;;;9.07;97.88
52797;BME280;38666;43.348;12.584;2023-02-19T13:03:21;96474.22;;;9.05;97.48
52797;BME280;38666;43.348;12.584;2023-02-19T13:05:56;96470.28;;;8.98;98.62
52797;BME280;38666;43.348;12.584;2023-02-19T13:11:02;96459.47;;;9.06;98.62
52797;BME280;38666;43.348;12.584;2023-02-19T13:13:51;96465.81;;;9.17;99.29
52797;BME280;38666;43.348;12.584;2023-02-19T13:16:20;96465.28;;;9.35;97.54
52797;BME280;38666;43.348;12.584;2023-02-19T13:21:14;96452.38;;;8.97;99.61
52797;BME280;38666;43.348;12.584;2023-02-19T13:24:10;96450.09;;;9.03;100.00
52797;BME280;38666;43.348;12.584;2023-02-19T13:28:20;96441.28;;;9.13;99.67
52797;BME280;38666;43.348;12.584;2023-02-19T13:30:33;96443.63;;;9.15;99.84
52797;BME280;38666;43.348;12.584;2023-02-19T13:36:08;96441.66;;;9.15;99.82
52797;BME280;38666;43.348;12.584;2023-02-19T13:38:41;96447.03;;;9.08;99.75
52797;BME280;38666;43.348;12.584;2023-02-19T13:41:59;96441.53;;;9.05;100.00
52797;BME280;38666;43.348;12.584;2023-02-19T13:44:07;96431.72;;;8.96;100.00
52797;BME280;38666;43.348;12.584;2023-02-19T13:46:42;96430.69;;;9.08;99.39
52797;BME280;38666;43.348;12.584;2023-02-19T13:54:30;96433.44;;;8.77;100.00
52797;BME280;38666;43.348;12.584;2023-02-19T13:59:51;96426.69;;;8.67;100.00
52797;BME280;38666;43.348;12.584;2023-02-19T14:09:51;96421.25;;;8.98;100.00
52797;BME280;38666;43.348;12.584;2023-02-19T14:14:52;96422.66;;;8.85;100.00
52797;BME280;38666;43.348;12.584;2023-02-19T14:19:57;96416.06;;;8.89;100.00
52797;BME280;38666;43.348;12.584;2023-02-19T14:30:52;96409.31;;;8.76;100.00
52797;BME280;38666;43.348;12.584;2023-02-19T14:33:25;96415.63;;;8.84;100.00
52797;BME280;38666;43.348;12.584;2023-02-19T14:35:58;96414.84;;;8.83;100.00
52797;BME280;38666;43.348;12.584;2023-02-19T14:38:53;96426.59;;;8.91;100.00
52797;BME280;38666;43.348;12.584;2023-02-19T14:41:17;96413.50;;;9.00;100.00
52797;BME280;38666;43.348;12.584;2023-02-19T14:43:46;96410.19;;;9.18;100.00
52797;BME280;38666;43.348;12.584;2023-02-19T14:46:28;96404.69;;;9.14;100.00
52797;BME280;38666;43.348;12.584;2023-02-19T14:48:58;96403.47;;;9.12;100.00
52797;BME280;38666;43.348;12.584;2023-02-19T14:51:40;96402.41;;;9.20;100.00
52797;BME280;38666;43.348;12.584;2023-02-19T14:54:12;96410.69;;;9.27;100.00
52797;BME280;38666;43.348;12.584;2023-02-19T14:56:43;96408.28;;;9.26;100.00
52797;BME280;38666;43.348;12.584;2023-02-19T15:01:35;96416.94;;;9.32;100.00
52797;BME280;38666;43.348;12.584;2023-02-19T15:04:01;96411.56;;;9.39;99.78
52797;BME280;38666;43.348;12.584;2023-02-19T15:06:27;96410.75;;;9.35;99.86
52797;BME280;38666;43.348;12.584;2023-02-19T15:08:58;96405.63;;;9.30;100.00
52797;BME280;38666;43.348;12.584;2023-02-19T15:11:27;96416.59;;;9.37;99.91
52797;BME280;38666;43.348;12.584;2023-02-19T15:14:06;96409.34;;;9.52;100.00
52797;BME280;38666;43.348;12.584;2023-02-19T15:16:33;96411.63;;;9.46;98.89
52797;BME280;38666;43.348;12.584;2023-02-19T15:19:00;96416.38;;;9.53;98.67
52797;BME280;38666;43.348;12.584;2023-02-19T15:21:31;96412.31;;;9.36;99.32
52797;BME280;38666;43.348;12.584;2023-02-19T15:24:00;96412.56;;;9.23;100.00
52797;BME280;38666;43.348;12.584;2023-02-19T15:26:41;96411.75;;;9.19;100.00
52797;BME280;38666;43.348;12.584;2023-02-19T15:29:16;96407.88;;;9.20;100.00
52797;BME280;38666;43.348;12.584;2023-02-19T15:31:53;96414.16;;;9.28;100.00
52797;BME280;38666;43.348;12.584;2023-02-19T15:34:24;96419.19;;;9.22;100.00
52797;BME280;38666;43.348;12.584;2023-02-19T15:36:55;96408.28;;;9.22;100.00
52797;BME280;38666;43.348;12.584;2023-02-19T15:39:23;96410.19;;;9.18;100.00
52797;BME280;38666;43.348;12.584;2023-02-19T15:41:55;96407.47;;;9.18;100.00
52797;BME280;38666;43.348;12.584;2023-02-19T15:46:51;96418.06;;;9.27;100.00
52797;BME280;38666;43.348;12.584;2023-02-19T15:49:23;96409.13;;;9.30;100.00
52797;BME280;38666;43.348;12.584;2023-02-19T15:52:00;96413.81;;;9.33;100.00
52797;BME280;38666;43.348;12.584;2023-02-19T15:54:32;96403.69;;;9.30;99.74
52797;BME280;38666;43.348;12.584;2023-02-19T15:57:04;96409.91;;;9.31;100.00
52797;BME280;38666;43.348;12.584;2023-02-19T15:59:39;96408.75;;;9.32;99.96
52797;BME280;38666;43.348;12.584;2023-02-19T16:02:12;96413.81;;;9.33;100.00
52797;BME280;38666;43.348;12.584;2023-02-19T16:04:39;96416.16;;;9.31;99.34
52797;BME280;38666;43.348;12.584;2023-02-19T16:07:27;96410.25;;;9.25;99.84
52797;BME280;38666;43.348;12.584;2023-02-19T16:12:42;96408.25;;;9.19;99.87
52797;BME280;38666;43.348;12.584;2023-02-19T16:15:12;96416.75;;;9.13;100.00
52797;BME280;38666;43.348;12.584;2023-02-19T16:17:41;96421.75;;;9.08;100.00
52797;BME280;38666;43.348;12.584;2023-02-19T16:20:18;96417.06;;;9.08;100.00
52797;BME280;38666;43.348;12.584;2023-02-19T16:22:44;96412.75;;;9.03;100.00
52797;BME280;38666;43.348;12.584;2023-02-19T16:25:24;96409.59;;;9.01;100.00
52797;BME280;38666;43.348;12.584;2023-02-19T16:27:50;96416.97;;;8.97;100.00
52797;BME280;38666;43.348;12.584;2023-02-19T16:32:42;96421.25;;;8.98;100.00
52797;BME280;38666;43.348;12.584;2023-02-19T16:35:38;96422.06;;;9.02;100.00
52797;BME280;38666;43.348;12.584;2023-02-19T16:38:12;96420.50;;;9.01;100.00
52797;BME280;38666;43.348;12.584;2023-02-19T16:45:42;96415.00;;;8.98;100.00
52797;BME280;38666;43.348;12.584;2023-02-19T16:48:09;96415.66;;;8.87;100.00
52797;BME280;38666;43.348;12.584;2023-02-19T16:50:35;96408.59;;;8.83;100.00
52797;BME280;38666;43.348;12.584;2023-02-19T16:53:02;96413.31;;;8.86;100.00
52797;BME280;38666;43.348;12.584;2023-02-19T16:55:29;96418.00;;;8.89;100.00
52797;BME280;38666;43.348;12.584;2023-02-19T16:57:55;96416.72;;;9.10;100.00
52797;BME280;38666;43.348;12.584;2023-02-19T17:00:25;96430.72;;;9.12;99.33
52797;BME280;38666;43.348;12.584;2023-02-19T17:02:53;96433.06;;;9.10;99.16
52797;BME280;38666;43.348;12.584;2023-02-19T17:05:21;96431.09;;;9.10;98.77
52797;BME280;38666;43.348;12.584;2023-02-19T17:07:48;96430.72;;;9.12;98.81
52797;BME280;38666;43.348;12.584;2023-02-19T17:10:19;96445.44;;;9.03;98.50
52797;BME280;38666;43.348;12.584;2023-02-19T17:12:45;96441.53;;;9.05;98.79
52797;BME280;38666;43.348;12.584;2023-02-19T17:15:11;96443.06;;;9.02;98.29
52797;BME280;38666;43.348;12.584;2023-02-19T17:17:37;96435.19;;;8.93;99.15
52797;BME280;38666;43.348;12.584;2023-02-19T17:22:36;96446.78;;;8.86;100.00
52797;BME280;38666;43.348;12.584;2023-02-19T17:25:02;96444.47;;;8.88;100.00
52797;BME280;38666;43.348;12.584;2023-02-19T17:27:28;96447.66;;;8.94;99.39
52797;BME280;38666;43.348;12.584;2023-02-19T17:29:53;96458.97;;;8.96;99.01
52797;BME280;38666;43.348;12.584;2023-02-19T17:32:18;96462.38;;;8.89;99.46
52797;BME280;38666;43.348;12.584;2023-02-19T17:34:44;96467.97;;;9.00;98.89
52797;BME280;38666;43.348;12.584;2023-02-19T17:37:13;96474.22;;;9.01;98.07
52797;BME280;38666;43.348;12.584;2023-02-19T17:39:39;96481.97;;;8.99;98.70
52797;BME280;38666;43.348;12.584;2023-02-19T17:42:04;96488.88;;;8.93;99.38
52797;BME280;38666;43.348;12.584;2023-02-19T17:44:30;96490.19;;;9.02;98.06
52797;BME280;38666;43.348;12.584;2023-02-19T17:46:55;96483.91;;;8.98;98.42
52797;BME280;38666;43.348;12.584;2023-02-19T17:49:21;96477.97;;;8.93;98.47
52797;BME280;38666;43.348;12.584;2023-02-19T17:51:46;96488.50;;;8.94;98.80
52797;BME280;38666;43.348;12.584;2023-02-19T17:54:12;96494.31;;;8.93;99.07
52797;BME280;38666;43.348;12.584;2023-02-19T17:56:37;96498.69;;;8.97;98.57
52797;BME280;38666;43.348;12.584;2023-02-19T17:59:08;96496.00;;;9.01;98.54
52797;BME280;38666;43.348;12.584;2023-02-19T18:01:34;96493.63;;;8.99;98.80
52797;BME280;38666;43.348;12.584;2023-02-19T18:03:59;96492.13;;;9.02;98.85
52797;BME280;38666;43.348;12.584;2023-02-19T18:06:25;96490.16;;;8.99;97.93
52797;BME280;38666;43.348;12.584;2023-02-19T18:08:51;96492.06;;;8.98;98.45
52797;BME280;38666;43.348;12.584;2023-02-19T18:11:18;96490.50;;;8.97;98.14
52797;BME280;38666;43.348;12.584;2023-02-19T18:13:43;96492.06;;;8.98;98.41
52797;BME280;38666;43.348;12.584;2023-02-19T18:16:09;96488.19;;;8.99;98.98
52797;BME280;38666;43.348;12.584;2023-02-19T18:18:35;96479.66;;;9.01;98.86
52797;BME280;38666;43.348;12.584;2023-02-19T18:21:01;96474.16;;;8.97;98.75
52797;BME280;38666;43.348;12.584;2023-02-19T18:23:27;96477.34;;;9.03;97.93
52797;BME280;38666;43.348;12.584;2023-02-19T18:25:52;96478.88;;;9.00;97.92
52797;BME280;38666;43.348;12.584;2023-02-19T18:28:18;96482.38;;;9.01;98.18
52797;BME280;38666;43.348;12.584;2023-02-19T18:30:43;96479.63;;;8.97;98.18
52797;BME280;38666;43.348;12.584;2023-02-19T18:33:09;96495.22;;;9.00;98.19
52797;BME280;38666;43.348;12.584;2023-02-19T18:35:37;96502.22;;;9.01;98.25
52797;BME280;38666;43.348;12.584;2023-02-19T18:38:02;96492.88;;;8.99;98.28
52797;BME280;38666;43.348;12.584;2023-02-19T18:40:28;96498.75;;;9.05;97.64
52797;BME280;38666;43.348;12.584;2023-02-19T18:42:54;96509.25;;;9.02;97.41
52797;BME280;38666;43.348;12.584;2023-02-19T18:45:19;96499.06;;;8.99;97.31
52797;BME280;38666;43.348;12.584;2023-02-19T18:47:48;96495.22;;;9.00;97.75
52797;BME280;38666;43.348;12.584;2023-02-19T18:50:16;96489.03;;;9.03;96.92
